< < Back
Terminal Aerodrome Forecast


Current Version              Previous Versions:   1  2  3  4  5  6  7  8  9  

Terminal Aerodrome Forecast

537
FTUS42 KTAE 271120
TAFVLD
TAF
KVLD 271120Z 2712/2812 00000KT P6SM SCT250
     FM271500 21004KT P6SM FEW050 SCT250=

Latest METAR

540
SAUS70 KWBC 280300 RRF
MTRVLD
METAR KVLD 280253Z AUTO VRB03KT 10SM CLR 27/24 A3005 RMK AO2 SLP182
T02670239 53011


USA.gov is the U.S. government's official web portal to all federal, state and local government web resources and services.